Time;durP1;ratioP1;P1;durP2;ratioP2;P2;SDS_P1;SDS_P2;PMS_P1;PMS_P2;Temp;Humidity;BMP_temperature;BMP_pressure;BME280_temperature;BME280_humidity;BME280_pressure;Samples;Min_cycle;Max_cycle;Signal;HPM_P1;HPM_P2
2022/08/01 00:00:30;;;;;;;0.00;0.00;;;17.10;99.90;;;;;;5050173;28;20239;-58
2022/08/01 00:02:55;;;;;;;0.10;0.10;;;17.20;99.90;;;;;;5052033;28;20178;-58
2022/08/01 00:05:21;;;;;;;0.00;0.00;;;17.20;99.90;;;;;;5051845;28;20243;-59
2022/08/01 00:07:47;;;;;;;2.90;1.40;;;17.20;99.90;;;;;;5051896;28;20241;-60
2022/08/01 00:10:15;;;;;;;0.00;0.00;;;17.20;99.90;;;;;;5051633;28;20231;-59
2022/08/01 00:12:42;;;;;;;0.00;0.00;;;17.20;99.90;;;;;;5051409;28;20210;-59
2022/08/01 00:15:10;;;;;;;0.03;0.03;;;17.30;99.90;;;;;;5050895;28;20178;-59
2022/08/01 00:17:36;;;;;;;0.10;0.10;;;17.30;99.90;;;;;;5051883;28;20784;-59
2022/08/01 00:20:04;;;;;;;0.32;0.32;;;17.30;99.90;;;;;;5051859;28;20265;-58
2022/08/01 00:22:34;;;;;;;0.00;0.00;;;17.40;99.90;;;;;;5051639;28;20178;-59
2022/08/01 00:25:00;;;;;;;0.10;0.10;;;17.30;99.90;;;;;;5051837;28;20178;-59
2022/08/01 00:27:26;;;;;;;0.00;0.00;;;17.30;99.90;;;;;;5051255;28;20269;-59
2022/08/01 00:29:51;;;;;;;0.00;0.00;;;17.20;99.90;;;;;;5051707;28;20281;-59
2022/08/01 00:32:17;;;;;;;0.35;0.35;;;17.20;99.90;;;;;;5051048;28;20921;-60
2022/08/01 00:34:43;;;;;;;0.00;0.00;;;17.10;99.90;;;;;;5051746;28;20186;-59
2022/08/01 00:37:09;;;;;;;0.00;0.00;;;17.10;99.90;;;;;;5051445;28;20197;-60
2022/08/01 00:39:35;;;;;;;0.00;0.00;;;17.10;99.90;;;;;;5051098;28;20639;-58
2022/08/01 00:42:07;;;;;;;0.40;0.30;;;17.00;99.90;;;;;;5050113;28;20190;-59
2022/08/01 00:44:33;;;;;;;0.08;0.08;;;17.00;99.90;;;;;;5051151;28;20182;-59
2022/08/01 00:46:59;;;;;;;0.00;0.00;;;17.00;99.90;;;;;;5051672;28;20182;-59
2022/08/01 00:49:24;;;;;;;0.00;0.00;;;17.10;99.90;;;;;;5050946;28;20586;-59
2022/08/01 00:51:50;;;;;;;0.00;0.00;;;17.10;99.90;;;;;;5051552;28;20182;-59
2022/08/01 00:54:16;;;;;;;0.47;0.47;;;17.00;99.90;;;;;;5051185;28;20512;-59
2022/08/01 00:56:42;;;;;;;0.00;0.00;;;17.00;99.90;;;;;;5051304;28;20260;-58
2022/08/01 00:59:10;;;;;;;0.00;0.00;;;16.90;99.90;;;;;;5051537;28;20218;-59
2022/08/01 01:01:36;;;;;;;0.20;0.20;;;16.90;99.90;;;;;;5051518;28;20260;-58
2022/08/01 01:04:02;;;;;;;0.32;0.32;;;17.00;99.90;;;;;;5051214;28;20277;-59
2022/08/01 01:06:34;;;;;;;0.00;0.00;;;16.90;99.90;;;;;;5051149;28;20257;-59
2022/08/01 01:09:03;;;;;;;0.00;0.00;;;16.90;99.90;;;;;;5051416;28;20206;-60
2022/08/01 01:11:37;;;;;;;0.00;0.00;;;16.90;99.90;;;;;;5050994;28;20187;-60
2022/08/01 01:14:11;;;;;;;0.00;0.00;;;17.00;99.90;;;;;;5051539;28;20181;-59
2022/08/01 01:16:42;;;;;;;0.00;0.00;;;17.00;99.90;;;;;;5051268;28;20165;-60
2022/08/01 01:19:16;;;;;;;0.00;0.00;;;17.00;99.90;;;;;;5051093;28;20213;-59
2022/08/01 01:22:05;;;;;;;0.00;0.00;;;17.10;99.90;;;;;;5051472;28;20185;-59
2022/08/01 01:24:37;;;;;;;0.00;0.00;;;17.10;99.90;;;;;;5051238;28;20179;-60
2022/08/01 01:27:24;;;;;;;0.00;0.00;;;17.10;99.90;;;;;;5055162;28;20635;-60
2022/08/01 01:29:53;;;;;;;0.00;0.00;;;17.10;99.90;;;;;;5054791;28;20677;-60
2022/08/01 01:32:25;;;;;;;0.00;0.00;;;17.10;99.90;;;;;;5054283;28;20535;-59
2022/08/01 01:34:54;;;;;;;0.00;0.00;;;17.10;99.90;;;;;;5054737;28;20542;-60
2022/08/01 01:37:23;;;;;;;0.00;0.00;;;17.20;99.90;;;;;;5054467;28;20700;-60
2022/08/01 01:39:51;;;;;;;0.00;0.00;;;17.20;99.90;;;;;;5054207;28;20253;-60
2022/08/01 01:42:18;;;;;;;0.00;0.00;;;17.20;99.90;;;;;;5054227;28;20524;-60
2022/08/01 01:44:46;;;;;;;0.00;0.00;;;17.20;99.90;;;;;;5054508;28;20209;-59
2022/08/01 01:47:13;;;;;;;0.00;0.00;;;17.20;99.90;;;;;;5054445;28;20178;-63
2022/08/01 01:49:42;;;;;;;0.13;0.13;;;17.20;99.90;;;;;;5054608;28;20240;-60
2022/08/01 01:52:09;;;;;;;1.50;1.10;;;17.20;99.90;;;;;;5054827;28;20218;-59
2022/08/01 01:54:44;;;;;;;0.57;0.33;;;17.20;99.90;;;;;;5054144;28;20170;-59
2022/08/01 01:57:11;;;;;;;2.00;0.90;;;17.20;99.90;;;;;;5054530;28;20656;-59
2022/08/01 01:59:39;;;;;;;0.00;0.00;;;17.20;99.90;;;;;;5054340;28;20234;-60
2022/08/01 02:02:06;;;;;;;1.73;1.33;;;17.30;99.90;;;;;;5054390;28;20268;-60
2022/08/01 02:04:35;;;;;;;0.20;0.20;;;17.30;99.90;;;;;;5053862;28;20206;-59
2022/08/01 02:07:02;;;;;;;1.17;0.75;;;17.30;99.90;;;;;;5054117;28;20174;-59
2022/08/01 02:09:30;;;;;;;0.30;0.20;;;17.30;99.90;;;;;;5052645;28;20186;-60
2022/08/01 02:11:58;;;;;;;2.20;1.63;;;17.30;99.90;;;;;;5054365;28;20183;-60
2022/08/01 02:14:26;;;;;;;0.00;0.00;;;17.30;99.90;;;;;;5053802;28;20677;-60
2022/08/01 02:16:57;;;;;;;2.38;1.10;;;17.30;99.90;;;;;;5053674;28;20642;-60
2022/08/01 02:19:23;;;;;;;3.80;2.15;;;17.30;99.90;;;;;;5055830;28;20217;-60
2022/08/01 02:21:54;;;;;;;0.82;0.80;;;17.40;99.90;;;;;;5073763;28;20208;-61
2022/08/01 02:24:36;;;;;;;8.00;2.90;;;17.40;99.90;;;;;;5073682;28;20173;-60
2022/08/01 02:27:09;;;;;;;0.33;0.30;;;17.30;99.90;;;;;;5074154;28;20220;-60
2022/08/01 02:29:57;;;;;;;4.07;2.17;;;17.30;99.90;;;;;;5073600;28;20177;-60
2022/08/01 02:32:37;;;;;;;0.00;0.00;;;17.30;99.90;;;;;;5073337;28;20180;-60
2022/08/01 02:35:04;;;;;;;0.27;0.27;;;17.30;99.90;;;;;;5073791;28;20177;-61
2022/08/01 02:37:34;;;;;;;0.00;0.00;;;17.30;99.90;;;;;;5072974;28;20265;-60
2022/08/01 02:40:01;;;;;;;0.07;0.07;;;17.30;99.90;;;;;;5073731;28;20300;-60
2022/08/01 02:42:29;;;;;;;0.10;0.10;;;17.30;99.90;;;;;;5073191;28;20181;-60
2022/08/01 02:44:57;;;;;;;1.47;0.37;;;17.40;99.90;;;;;;5073296;28;20185;-60
2022/08/01 02:47:24;;;;;;;0.10;0.10;;;17.30;99.90;;;;;;5073098;28;20589;-61
2022/08/01 02:49:52;;;;;;;0.37;0.30;;;17.30;99.90;;;;;;5073434;28;20545;-61
2022/08/01 02:52:20;;;;;;;2.00;1.60;;;17.30;99.90;;;;;;5072979;28;20909;-61
2022/08/01 02:54:50;;;;;;;1.03;0.73;;;17.30;99.90;;;;;;5072991;28;20188;-61
2022/08/01 02:57:17;;;;;;;1.95;1.20;;;17.30;99.90;;;;;;5071958;28;20265;-64
2022/08/01 02:59:45;;;;;;;0.80;0.67;;;17.30;99.90;;;;;;5073070;28;20286;-62
2022/08/01 03:02:13;;;;;;;0.00;0.00;;;17.30;99.90;;;;;;5073279;28;20174;-61
2022/08/01 03:04:41;;;;;;;0.45;0.32;;;17.30;99.90;;;;;;5072413;28;20193;-62
2022/08/01 03:07:10;;;;;;;3.37;1.20;;;17.30;99.90;;;;;;5073128;28;20186;-61
2022/08/01 03:09:43;;;;;;;1.77;1.42;;;17.30;99.90;;;;;;5061203;28;20186;-61
2022/08/01 03:12:16;;;;;;;7.63;2.45;;;17.20;99.90;;;;;;5052916;28;20209;-61
2022/08/01 03:14:44;;;;;;;11.32;5.35;;;17.20;99.90;;;;;;5053164;28;20217;-62
2022/08/01 03:17:11;;;;;;;1.50;1.02;;;17.20;99.90;;;;;;5052880;28;20236;-62
2022/08/01 03:19:39;;;;;;;6.00;1.48;;;17.20;99.90;;;;;;5056007;28;20201;-61
2022/08/01 03:22:11;;;;;;;0.17;0.17;;;17.20;99.90;;;;;;5072670;28;20554;-61
2022/08/01 03:24:39;;;;;;;7.10;3.38;;;17.20;99.90;;;;;;5071880;28;20247;-61
2022/08/01 03:27:06;;;;;;;8.60;3.70;;;17.10;99.90;;;;;;5071063;28;20694;-61
2022/08/01 03:29:33;;;;;;;0.80;0.80;;;17.10;99.90;;;;;;5072332;28;20626;-62
2022/08/01 03:32:01;;;;;;;1.40;1.30;;;17.10;99.90;;;;;;5072520;28;20189;-62
2022/08/01 03:34:28;;;;;;;1.23;0.70;;;17.10;99.90;;;;;;5071518;28;20223;-62
2022/08/01 03:37:06;;;;;;;6.30;3.58;;;17.10;99.90;;;;;;5072182;28;20185;-61
2022/08/01 03:39:41;;;;;;;3.00;0.50;;;17.10;99.90;;;;;;5071427;28;20713;-61
2022/08/01 03:42:14;;;;;;;0.00;0.00;;;17.00;99.90;;;;;;5072560;28;20168;-61
2022/08/01 03:44:41;;;;;;;4.30;1.02;;;17.00;99.90;;;;;;5071846;28;20181;-61
2022/08/01 03:47:08;;;;;;;4.23;1.83;;;17.00;99.90;;;;;;5072136;28;20177;-61
2022/08/01 03:49:44;;;;;;;6.87;3.63;;;17.00;99.90;;;;;;5071303;28;20182;-61
2022/08/01 03:52:12;;;;;;;7.28;4.65;;;17.00;99.90;;;;;;5071972;28;20268;-60
2022/08/01 03:54:43;;;;;;;2.50;1.95;;;17.00;99.90;;;;;;5071942;28;20209;-61
2022/08/01 03:57:10;;;;;;;11.47;5.60;;;17.00;99.90;;;;;;5071954;28;20183;-60
2022/08/01 03:59:36;;;;;;;1.23;1.13;;;17.00;99.90;;;;;;5071544;28;20570;-60
2022/08/01 04:02:04;;;;;;;6.20;2.63;;;17.00;99.90;;;;;;5071741;28;20231;-60
2022/08/01 04:04:30;;;;;;;0.10;0.10;;;17.00;99.90;;;;;;5071614;28;20274;-61
2022/08/01 04:06:55;;;;;;;4.28;1.73;;;17.00;99.90;;;;;;5071979;28;20223;-61
2022/08/01 04:09:22;;;;;;;17.60;8.48;;;17.00;99.90;;;;;;5062254;28;20198;-61
2022/08/01 04:11:48;;;;;;;2.50;2.30;;;17.00;99.90;;;;;;5051747;28;20196;-61
2022/08/01 04:14:14;;;;;;;3.63;2.42;;;17.00;99.90;;;;;;5051665;28;20172;-61
2022/08/01 04:16:40;;;;;;;1.45;0.63;;;17.00;99.90;;;;;;5051461;28;20479;-61
2022/08/01 04:19:08;;;;;;;0.98;0.90;;;17.10;99.90;;;;;;5051417;28;20778;-61
2022/08/01 04:21:36;;;;;;;8.38;4.50;;;17.10;99.90;;;;;;5031191;28;20219;-62
2022/08/01 04:24:10;;;;;;;6.97;1.70;;;17.20;99.90;;;;;;5031534;28;20178;-61
2022/08/01 04:26:37;;;;;;;1.20;0.73;;;17.20;99.90;;;;;;5031487;28;20183;-60
2022/08/01 04:29:05;;;;;;;17.23;9.73;;;17.20;99.90;;;;;;5031282;28;20190;-61
2022/08/01 04:31:32;;;;;;;14.05;4.82;;;17.20;99.90;;;;;;5031209;28;20193;-61
2022/08/01 04:33:59;;;;;;;3.40;2.15;;;17.20;99.90;;;;;;5031529;28;20278;-61
2022/08/01 04:36:27;;;;;;;0.47;0.47;;;17.20;99.90;;;;;;5030783;28;20209;-61
2022/08/01 04:38:58;;;;;;;13.15;7.22;;;17.30;99.90;;;;;;5030949;28;20231;-62
2022/08/01 04:41:24;;;;;;;9.38;6.03;;;17.20;99.90;;;;;;5030969;28;20182;-61
2022/08/01 04:43:51;;;;;;;7.70;3.43;;;17.10;99.90;;;;;;5031168;28;20655;-61
2022/08/01 04:46:18;;;;;;;17.87;9.33;;;17.10;99.90;;;;;;5031085;28;20240;-63
2022/08/01 04:48:45;;;;;;;4.00;2.23;;;17.00;99.90;;;;;;5031436;28;20179;-62
2022/08/01 04:51:21;;;;;;;0.47;0.47;;;17.00;99.90;;;;;;5042075;28;20240;-63
2022/08/01 04:53:48;;;;;;;11.57;5.93;;;17.00;99.90;;;;;;5051192;28;20705;-54
2022/08/01 04:56:14;;;;;;;3.23;2.93;;;16.90;99.90;;;;;;5050813;28;20179;-58
2022/08/01 04:58:40;;;;;;;8.00;4.63;;;16.90;99.90;;;;;;5050382;28;20218;-59
2022/08/01 05:01:07;;;;;;;1.67;1.30;;;16.90;99.90;;;;;;5052337;28;20623;-58
2022/08/01 05:03:33;;;;;;;2.30;1.50;;;16.90;99.90;;;;;;5054507;28;20542;-58
2022/08/01 05:05:59;;;;;;;4.57;2.63;;;16.80;99.90;;;;;;5053605;28;20638;-58
2022/08/01 05:08:25;;;;;;;0.00;0.00;;;16.80;99.90;;;;;;5055041;28;20193;-58
2022/08/01 05:10:50;;;;;;;11.23;3.67;;;16.80;99.90;;;;;;5054821;28;20179;-59
2022/08/01 05:13:16;;;;;;;2.03;1.53;;;16.70;99.90;;;;;;5056449;28;20512;-58
2022/08/01 05:15:42;;;;;;;9.17;5.20;;;16.70;99.90;;;;;;5055509;28;20844;-58
2022/08/01 05:18:08;;;;;;;0.07;0.07;;;16.70;99.90;;;;;;5054952;28;20550;-59
2022/08/01 05:20:33;;;;;;;2.50;1.23;;;16.70;99.90;;;;;;5054527;28;20719;-59
2022/08/01 05:22:59;;;;;;;0.97;0.93;;;16.70;99.90;;;;;;5054573;28;20192;-58
2022/08/01 05:25:25;;;;;;;2.43;1.37;;;16.80;99.90;;;;;;5052871;28;20639;-60
2022/08/01 05:27:50;;;;;;;1.67;0.80;;;16.80;99.90;;;;;;5054503;28;20238;-59
2022/08/01 05:30:16;;;;;;;2.27;1.63;;;16.90;99.90;;;;;;5054911;28;20233;-59
2022/08/01 05:32:42;;;;;;;6.70;3.10;;;16.90;99.90;;;;;;5054143;28;20579;-58
2022/08/01 05:35:08;;;;;;;1.13;1.13;;;16.90;99.90;;;;;;5054398;28;20200;-61
2022/08/01 05:37:34;;;;;;;2.00;1.60;;;16.90;99.90;;;;;;5053425;28;20218;-60
2022/08/01 05:40:00;;;;;;;11.83;3.63;;;16.90;99.90;;;;;;5054157;28;20217;-59
2022/08/01 05:42:26;;;;;;;0.10;0.10;;;16.90;99.90;;;;;;5054378;28;20210;-59
2022/08/01 05:44:52;;;;;;;0.93;0.43;;;16.90;99.90;;;;;;5054521;28;20651;-59
2022/08/01 05:47:18;;;;;;;2.57;1.53;;;16.90;99.90;;;;;;5054314;28;20258;-59
2022/08/01 05:49:45;;;;;;;2.83;2.00;;;16.80;99.90;;;;;;5054175;28;20189;-61
2022/08/01 05:52:11;;;;;;;1.13;0.43;;;16.80;99.90;;;;;;5053975;28;20646;-61
2022/08/01 05:54:38;;;;;;;8.37;3.63;;;16.80;99.90;;;;;;5053781;28;20205;-58
2022/08/01 05:57:03;;;;;;;18.40;8.47;;;16.80;99.90;;;;;;5053661;28;20261;-60
2022/08/01 05:59:30;;;;;;;0.67;0.67;;;16.70;99.90;;;;;;5053861;28;20662;-59
2022/08/01 06:01:56;;;;;;;0.67;0.60;;;16.70;99.90;;;;;;5054032;28;20206;-59
2022/08/01 06:04:22;;;;;;;3.87;1.93;;;16.70;99.90;;;;;;5054353;28;20639;-61
2022/08/01 06:06:48;;;;;;;3.00;0.87;;;16.60;99.90;;;;;;5053433;28;20229;-60
2022/08/01 06:09:14;;;;;;;3.33;1.37;;;16.60;99.90;;;;;;5053985;28;20224;-59
2022/08/01 06:11:40;;;;;;;0.00;0.00;;;16.60;99.90;;;;;;5052883;28;20182;-59
2022/08/01 06:14:06;;;;;;;13.00;6.87;;;16.60;99.90;;;;;;5053695;28;20197;-59
2022/08/01 06:16:32;;;;;;;4.43;1.10;;;16.70;99.90;;;;;;5052079;28;20189;-59
2022/08/01 06:18:57;;;;;;;3.63;1.40;;;16.60;99.90;;;;;;5053375;28;20217;-59
2022/08/01 06:21:23;;;;;;;10.23;4.47;;;16.70;99.90;;;;;;5061708;28;20322;-58
2022/08/01 06:23:49;;;;;;;13.73;6.70;;;16.60;99.90;;;;;;5052341;28;20529;-59
2022/08/01 06:26:18;;;;;;;11.37;4.60;;;16.60;99.90;;;;;;5050505;28;20269;-61
2022/08/01 06:28:43;;;;;;;10.80;5.20;;;16.70;99.90;;;;;;5051535;28;20529;-59
2022/08/01 06:31:11;;;;;;;1.07;1.03;;;16.80;99.90;;;;;;5048314;28;20191;-59
2022/08/01 06:33:37;;;;;;;7.90;5.70;;;16.80;99.90;;;;;;5052913;28;20277;-60
2022/08/01 06:36:03;;;;;;;3.43;2.23;;;16.80;99.90;;;;;;5052201;28;20302;-59
2022/08/01 06:38:29;;;;;;;5.23;2.83;;;16.80;99.90;;;;;;5064795;28;20242;-59
2022/08/01 06:40:55;;;;;;;1.53;1.43;;;16.90;99.90;;;;;;5067362;28;20261;-59
2022/08/01 06:43:21;;;;;;;7.33;2.47;;;16.90;99.90;;;;;;5071635;28;20256;-58
2022/08/01 06:45:47;;;;;;;1.17;1.07;;;16.90;99.90;;;;;;5071344;28;20204;-61
2022/08/01 06:48:13;;;;;;;5.23;1.43;;;16.90;99.90;;;;;;5052421;28;20545;-61
2022/08/01 06:50:39;;;;;;;1.60;1.00;;;17.00;99.90;;;;;;5066709;28;20191;-60
2022/08/01 06:53:04;;;;;;;3.70;0.80;;;16.90;99.90;;;;;;5052131;28;20238;-60
2022/08/01 06:55:31;;;;;;;1.87;0.30;;;17.00;99.90;;;;;;5055309;28;20198;-61
2022/08/01 06:57:56;;;;;;;3.30;2.00;;;16.90;99.90;;;;;;5055838;28;20642;-59
2022/08/01 07:15:26;;;;;;;2.57;1.70;;;16.80;99.90;;;;;;5104188;27;20621;-61
2022/08/01 07:17:52;;;;;;;3.23;2.43;;;16.60;99.90;;;;;;5069968;28;20200;-59
2022/08/01 07:20:19;;;;;;;4.40;2.80;;;16.60;99.90;;;;;;5087897;28;20181;-68
2022/08/01 07:22:45;;;;;;;1.87;1.67;;;16.60;99.90;;;;;;5088510;28;20220;-60
2022/08/01 07:25:10;;;;;;;4.70;2.57;;;16.60;99.90;;;;;;5088372;28;20220;-62
2022/08/01 07:27:37;;;;;;;3.87;1.40;;;16.50;99.90;;;;;;5087481;28;20228;-59
2022/08/01 07:30:04;;;;;;;4.40;1.73;;;16.50;99.90;;;;;;5088238;28;20184;-60
2022/08/01 07:32:30;;;;;;;6.40;2.80;;;16.50;99.90;;;;;;5087626;28;20204;-59
2022/08/01 09:40:52;;;;;;;0.40;0.40;;;16.50;99.90;;;;;;5067341;28;21068;-64
2022/08/01 09:43:20;;;;;;;0.30;0.30;;;17.90;99.90;;;;;;5067539;28;20196;-60
2022/08/01 09:45:46;;;;;;;0.00;0.00;;;17.90;99.90;;;;;;5067007;28;20177;-59
2022/08/01 09:48:12;;;;;;;0.00;0.00;;;17.80;99.90;;;;;;5067744;28;20193;-63
2022/08/01 09:50:46;;;;;;;0.00;0.00;;;17.90;99.90;;;;;;5067917;28;20227;-60
2022/08/01 09:53:12;;;;;;;0.00;0.00;;;18.00;99.90;;;;;;5057968;28;20190;-60
2022/08/01 09:55:39;;;;;;;0.00;0.00;;;18.10;99.90;;;;;;5046924;28;20543;-60
2022/08/01 09:58:06;;;;;;;0.00;0.00;;;18.20;99.90;;;;;;5061600;28;20228;-60
2022/08/01 10:00:34;;;;;;;0.00;0.00;;;18.40;99.90;;;;;;5059234;28;20202;-61
2022/08/01 10:03:19;;;;;;;0.00;0.00;;;18.40;99.90;;;;;;5053054;28;20236;-61
2022/08/01 10:05:45;;;;;;;0.00;0.00;;;18.50;99.90;;;;;;5047514;28;20178;-59
2022/08/01 10:08:12;;;;;;;0.00;0.00;;;18.80;99.90;;;;;;5046386;28;20591;-60
2022/08/01 10:10:38;;;;;;;0.00;0.00;;;18.90;99.90;;;;;;5046831;28;20197;-58
2022/08/01 10:13:04;;;;;;;0.00;0.00;;;19.00;99.90;;;;;;5047632;28;20205;-61
2022/08/01 10:15:31;;;;;;;0.20;0.20;;;19.00;99.90;;;;;;5047302;28;20182;-67
2022/08/01 10:18:00;;;;;;;0.00;0.00;;;19.20;99.90;;;;;;5047584;28;20252;-68
2022/08/01 10:20:31;;;;;;;0.00;0.00;;;19.30;99.90;;;;;;5068460;28;20212;-66
2022/08/01 10:23:02;;;;;;;0.00;0.00;;;19.70;99.90;;;;;;5086737;28;20177;-59
2022/08/01 10:25:32;;;;;;;0.00;0.00;;;19.70;99.90;;;;;;5085145;28;20181;-61
2022/08/01 10:28:01;;;;;;;0.00;0.00;;;19.60;99.90;;;;;;5070627;28;20232;-59
2022/08/01 10:30:28;;;;;;;0.00;0.00;;;19.60;99.90;;;;;;5066377;28;20194;-62
2022/08/01 10:32:55;;;;;;;0.00;0.00;;;19.60;99.90;;;;;;5062402;28;20335;-58
2022/08/01 10:35:21;;;;;;;0.00;0.00;;;19.70;99.90;;;;;;5064785;28;20571;-58
2022/08/01 10:37:48;;;;;;;0.00;0.00;;;19.80;99.90;;;;;;5075869;28;20216;-58
2022/08/01 10:40:15;;;;;;;0.00;0.00;;;19.80;99.90;;;;;;5079018;28;20896;-59
2022/08/01 10:42:45;;;;;;;0.00;0.00;;;19.80;99.90;;;;;;5084560;28;20648;-56
2022/08/01 10:45:14;;;;;;;0.00;0.00;;;20.00;99.90;;;;;;5073595;28;20646;-59
2022/08/01 10:47:47;;;;;;;0.00;0.00;;;20.20;99.90;;;;;;5076000;28;20272;-59
2022/08/01 10:50:16;;;;;;;0.00;0.00;;;20.00;99.90;;;;;;5077558;28;20227;-62
2022/08/01 10:53:02;;;;;;;0.00;0.00;;;19.80;99.90;;;;;;5062833;28;20498;-60
2022/08/01 10:55:28;;;;;;;0.00;0.00;;;20.00;99.90;;;;;;5064795;28;20196;-59
2022/08/01 10:57:54;;;;;;;0.32;0.32;;;19.90;99.90;;;;;;5057133;28;20183;-61
2022/08/01 11:00:21;;;;;;;0.00;0.00;;;19.80;99.90;;;;;;5051849;28;20218;-59
2022/08/01 11:03:03;;;;;;;0.00;0.00;;;19.80;99.90;;;;;;5052439;28;20220;-60
2022/08/01 11:05:32;;;;;;;0.00;0.00;;;19.90;99.90;;;;;;5053341;28;20174;-60
2022/08/01 11:08:03;;;;;;;0.00;0.00;;;20.20;99.90;;;;;;5050951;28;20221;-60
2022/08/01 11:10:42;;;;;;;0.00;0.00;;;20.40;99.90;;;;;;5073396;28;20222;-58
2022/08/01 11:13:09;;;;;;;0.00;0.00;;;20.60;99.90;;;;;;5047876;28;20591;-60
2022/08/01 11:15:35;;;;;;;0.00;0.00;;;20.60;99.90;;;;;;5062633;28;20182;-60
2022/08/01 11:18:03;;;;;;;0.00;0.00;;;20.70;99.90;;;;;;5057255;28;20528;-57
2022/08/01 11:20:35;;;;;;;0.00;0.00;;;20.50;99.90;;;;;;5063138;28;20209;-58
2022/08/01 11:23:04;;;;;;;0.00;0.00;;;20.20;99.90;;;;;;5059948;28;20189;-60
2022/08/01 11:25:36;;;;;;;0.00;0.00;;;20.10;99.90;;;;;;5071143;28;20193;-60
2022/08/01 11:28:17;;;;;;;0.00;0.00;;;19.90;99.90;;;;;;5068818;28;20304;-58
2022/08/01 11:30:51;;;;;;;0.00;0.00;;;19.90;99.90;;;;;;5045507;28;20190;-62
2022/08/01 11:33:38;;;;;;;0.00;0.00;;;19.90;99.90;;;;;;5059032;28;20670;-59
2022/08/01 11:36:10;;;;;;;0.00;0.00;;;20.00;99.90;;;;;;5057993;28;20239;-60
2022/08/01 11:38:41;;;;;;;0.00;0.00;;;19.90;99.90;;;;;;5072018;28;20743;-61
2022/08/01 11:41:25;;;;;;;0.00;0.00;;;20.00;99.90;;;;;;5069018;28;20272;-58
2022/08/01 11:43:58;;;;;;;0.00;0.00;;;20.10;99.90;;;;;;5071856;28;20189;-61
2022/08/01 11:46:46;;;;;;;0.20;0.20;;;20.30;99.90;;;;;;5067335;28;20197;-60
2022/08/01 11:49:36;;;;;;;0.00;0.00;;;20.30;99.90;;;;;;5072031;28;20189;-58
2022/08/01 11:52:06;;;;;;;0.00;0.00;;;20.60;99.90;;;;;;5071852;28;20695;-60
2022/08/01 11:54:38;;;;;;;0.00;0.00;;;20.80;99.90;;;;;;5071178;28;20177;-58
2022/08/01 11:57:06;;;;;;;0.00;0.00;;;21.00;99.90;;;;;;5059908;28;20242;-62
2022/08/01 11:59:37;;;;;;;0.00;0.00;;;21.20;99.90;;;;;;5070973;28;20205;-59
2022/08/01 12:02:02;;;;;;;0.00;0.00;;;21.10;99.90;;;;;;5069864;28;20710;-60
2022/08/01 12:04:45;;;;;;;0.00;0.00;;;21.00;99.90;;;;;;5053705;28;20273;-60
2022/08/01 12:07:18;;;;;;;0.00;0.00;;;20.90;99.90;;;;;;5063964;28;20188;-58
2022/08/01 12:09:44;;;;;;;0.00;0.00;;;21.00;99.90;;;;;;5071038;28;20216;-63
2022/08/01 12:12:11;;;;;;;0.00;0.00;;;21.10;99.90;;;;;;5066276;28;20190;-61
2022/08/01 12:14:38;;;;;;;0.00;0.00;;;21.20;99.90;;;;;;5071786;28;20185;-59
2022/08/01 12:17:04;;;;;;;0.00;0.00;;;21.40;99.90;;;;;;5060056;28;20601;-62
2022/08/01 12:19:30;;;;;;;0.00;0.00;;;21.30;99.90;;;;;;5068357;28;20297;-59
2022/08/01 12:22:10;;;;;;;0.00;0.00;;;21.10;99.90;;;;;;5064642;28;20228;-62
2022/08/01 12:24:37;;;;;;;0.00;0.00;;;21.20;99.90;;;;;;5053931;28;20182;-60
2022/08/01 12:27:04;;;;;;;0.00;0.00;;;21.20;99.90;;;;;;5054696;28;20218;-62
2022/08/01 12:29:40;;;;;;;0.00;0.00;;;21.30;99.90;;;;;;5063170;28;20198;-61
2022/08/01 12:32:22;;;;;;;0.00;0.00;;;21.10;99.90;;;;;;5056085;28;20263;-59
2022/08/01 12:34:48;;;;;;;0.00;0.00;;;21.10;99.90;;;;;;5050842;28;20217;-58
2022/08/01 12:37:15;;;;;;;0.00;0.00;;;21.20;99.90;;;;;;5064014;28;20231;-55
2022/08/01 12:39:40;;;;;;;0.00;0.00;;;21.30;99.90;;;;;;5070519;28;20634;-61
2022/08/01 12:42:12;;;;;;;0.00;0.00;;;21.30;99.90;;;;;;5052987;28;20201;-59
2022/08/01 12:44:39;;;;;;;0.00;0.00;;;21.40;99.90;;;;;;5051695;28;20253;-59
2022/08/01 12:47:06;;;;;;;0.00;0.00;;;21.40;99.90;;;;;;5034371;28;20222;-57
2022/08/01 12:49:35;;;;;;;0.00;0.00;;;21.50;99.90;;;;;;5031212;28;20191;-58
2022/08/01 12:52:01;;;;;;;0.00;0.00;;;21.50;99.90;;;;;;5031101;28;20174;-62
2022/08/01 12:54:27;;;;;;;0.00;0.00;;;21.40;99.90;;;;;;5030712;28;20183;-54
2022/08/01 12:56:53;;;;;;;0.00;0.00;;;21.30;99.90;;;;;;5037939;28;20606;-58
2022/08/01 12:59:24;;;;;;;0.00;0.00;;;21.20;99.90;;;;;;5049368;28;20210;-60
2022/08/01 13:01:54;;;;;;;0.00;0.00;;;21.20;99.90;;;;;;5050725;28;20179;-56
2022/08/01 13:04:22;;;;;;;0.00;0.00;;;21.20;99.90;;;;;;5050944;28;20542;-54
2022/08/01 13:06:52;;;;;;;0.00;0.00;;;21.20;99.90;;;;;;5050664;28;20273;-58
2022/08/01 13:09:18;;;;;;;0.00;0.00;;;21.20;99.90;;;;;;5050670;28;20190;-59
2022/08/01 13:11:46;;;;;;;0.00;0.00;;;21.30;99.90;;;;;;5050354;28;20304;-58
2022/08/01 13:14:29;;;;;;;0.00;0.00;;;21.40;99.90;;;;;;5050251;28;20190;-60
2022/08/01 13:16:55;;;;;;;0.00;0.00;;;21.50;99.90;;;;;;5049931;28;20259;-58
2022/08/01 13:19:21;;;;;;;0.00;0.00;;;21.40;99.90;;;;;;5052049;28;20202;-55
2022/08/01 13:21:55;;;;;;;0.00;0.00;;;21.30;99.90;;;;;;5069940;28;20338;-58
2022/08/01 13:24:28;;;;;;;0.00;0.00;;;21.10;99.90;;;;;;5063655;28;20605;-56
2022/08/01 13:27:02;;;;;;;0.00;0.00;;;20.90;99.90;;;;;;5045486;28;20185;-58
2022/08/01 13:29:31;;;;;;;0.00;0.00;;;20.80;99.90;;;;;;5050057;28;20231;-62
2022/08/01 13:31:58;;;;;;;0.00;0.00;;;20.90;99.90;;;;;;5050217;28;20641;-59
2022/08/01 13:34:33;;;;;;;0.00;0.00;;;20.90;99.90;;;;;;5050580;28;20341;-60
2022/08/01 13:37:01;;;;;;;0.00;0.00;;;21.00;99.90;;;;;;5050393;28;20653;-59
2022/08/01 13:39:47;;;;;;;0.00;0.00;;;21.20;99.90;;;;;;5049289;28;20237;-57
2022/08/01 13:42:16;;;;;;;0.00;0.00;;;21.40;99.90;;;;;;5049322;28;20247;-61
2022/08/01 13:44:45;;;;;;;0.00;0.00;;;21.50;99.90;;;;;;5049662;28;20545;-70
2022/08/01 13:47:11;;;;;;;0.00;0.00;;;21.50;99.90;;;;;;5049440;28;20272;-56
2022/08/01 13:49:37;;;;;;;0.00;0.00;;;21.80;99.90;;;;;;5049944;28;20604;-56
2022/08/01 13:52:05;;;;;;;0.00;0.00;;;21.80;99.90;;;;;;5049775;28;20194;-59
2022/08/01 13:54:32;;;;;;;0.00;0.00;;;21.80;99.90;;;;;;5049946;28;20284;-61
2022/08/01 13:56:58;;;;;;;0.00;0.00;;;21.70;99.90;;;;;;5049335;28;20182;-61
2022/08/01 13:59:23;;;;;;;0.00;0.00;;;21.60;99.90;;;;;;5050511;28;20221;-60
2022/08/01 14:01:49;;;;;;;0.00;0.00;;;21.50;99.90;;;;;;5048438;28;20277;-58
2022/08/01 14:04:15;;;;;;;0.00;0.00;;;21.20;99.90;;;;;;5049954;28;20175;-63
2022/08/01 14:06:41;;;;;;;0.00;0.00;;;20.90;99.90;;;;;;5050432;28;20190;-62
2022/08/01 14:09:07;;;;;;;0.00;0.00;;;20.80;99.90;;;;;;5066802;28;20181;-60
2022/08/01 14:11:33;;;;;;;0.00;0.00;;;20.60;99.90;;;;;;5070796;28;20199;-58
2022/08/01 14:13:59;;;;;;;0.00;0.00;;;20.60;99.90;;;;;;5068766;28;20265;-61
2022/08/01 14:16:25;;;;;;;0.00;0.00;;;20.50;99.90;;;;;;5070161;28;20206;-59
2022/08/01 14:18:51;;;;;;;0.00;0.00;;;20.40;99.90;;;;;;5069527;28;20633;-61
2022/08/01 14:21:19;;;;;;;0.00;0.00;;;20.40;99.90;;;;;;5052481;28;20226;-59
2022/08/01 14:23:44;;;;;;;0.00;0.00;;;20.40;99.90;;;;;;5064873;28;20182;-63
2022/08/01 14:26:10;;;;;;;0.00;0.00;;;20.40;99.90;;;;;;5071140;28;20644;-55
2022/08/01 14:28:36;;;;;;;0.00;0.00;;;20.50;99.90;;;;;;5052133;28;20244;-58
2022/08/01 14:31:02;;;;;;;0.00;0.00;;;20.60;99.90;;;;;;5053882;28;20178;-58
2022/08/01 14:33:29;;;;;;;0.00;0.00;;;20.60;99.90;;;;;;5053785;28;20265;-59
2022/08/01 14:35:55;;;;;;;0.00;0.00;;;20.60;99.90;;;;;;5053085;28;20187;-54
2022/08/01 14:38:20;;;;;;;0.00;0.00;;;20.50;99.90;;;;;;5053104;28;20182;-59
2022/08/01 14:40:51;;;;;;;0.00;0.00;;;20.40;99.90;;;;;;5051535;28;20185;-52
2022/08/01 14:43:17;;;;;;;0.00;0.00;;;20.40;99.90;;;;;;5053550;28;20178;-55
2022/08/01 14:45:43;;;;;;;0.00;0.00;;;20.40;99.90;;;;;;5053630;28;20187;-57
2022/08/01 14:48:09;;;;;;;2.47;1.77;;;20.40;99.90;;;;;;5053382;28;20175;-58
2022/08/01 14:50:35;;;;;;;3.35;2.65;;;20.40;99.90;;;;;;5053176;28;20212;-60
2022/08/01 14:53:01;;;;;;;0.80;0.77;;;20.40;99.90;;;;;;5052852;28;20304;-56
2022/08/01 14:55:27;;;;;;;0.30;0.20;;;20.30;99.90;;;;;;5052926;28;20186;-60
2022/08/01 14:57:53;;;;;;;0.47;0.47;;;20.30;99.90;;;;;;5053068;28;20313;-59
2022/08/01 15:00:19;;;;;;;2.53;1.95;;;20.40;99.90;;;;;;5053263;28;20344;-61
2022/08/01 15:02:45;;;;;;;0.30;0.28;;;20.50;99.90;;;;;;5052283;28;20210;-68
2022/08/01 15:05:11;;;;;;;0.98;0.85;;;20.60;99.90;;;;;;5052291;28;20292;-55
2022/08/01 15:07:37;;;;;;;5.60;0.73;;;20.90;99.90;;;;;;5051261;28;20182;-56
2022/08/01 15:10:06;;;;;;;5.00;3.30;;;21.10;99.90;;;;;;5052339;28;20654;-59
2022/08/01 15:12:33;;;;;;;0.50;0.50;;;21.30;99.90;;;;;;5053201;28;20189;-57